sensor_id;sensor_type;location;lat;lon;timestamp;P1;durP1;ratioP1;P2;durP2;ratioP2
25023;SDS011;13033;50.936;5.334;2022-11-20T00:01:10;30.83;;;17.90;;
25023;SDS011;13033;50.936;5.334;2022-11-20T00:03:37;30.35;;;18.38;;
25023;SDS011;13033;50.936;5.334;2022-11-20T00:06:03;31.70;;;18.83;;
25023;SDS011;13033;50.936;5.334;2022-11-20T00:08:31;30.33;;;18.38;;
25023;SDS011;13033;50.936;5.334;2022-11-20T00:11:02;33.92;;;19.00;;
25023;SDS011;13033;50.936;5.334;2022-11-20T00:13:34;34.13;;;17.92;;
25023;SDS011;13033;50.936;5.334;2022-11-20T00:16:01;31.42;;;19.10;;
25023;SDS011;13033;50.936;5.334;2022-11-20T00:18:28;33.38;;;19.08;;
25023;SDS011;13033;50.936;5.334;2022-11-20T00:20:59;32.65;;;18.60;;
25023;SDS011;13033;50.936;5.334;2022-11-20T00:23:29;34.28;;;18.67;;
25023;SDS011;13033;50.936;5.334;2022-11-20T00:25:55;32.70;;;19.30;;
25023;SDS011;13033;50.936;5.334;2022-11-20T00:28:20;31.65;;;19.27;;
25023;SDS011;13033;50.936;5.334;2022-11-20T00:30:46;31.83;;;19.52;;
25023;SDS011;13033;50.936;5.334;2022-11-20T00:33:11;32.40;;;19.42;;
25023;SDS011;13033;50.936;5.334;2022-11-20T00:35:37;33.05;;;20.23;;
25023;SDS011;13033;50.936;5.334;2022-11-20T00:38:03;32.20;;;19.17;;
25023;SDS011;13033;50.936;5.334;2022-11-20T00:40:28;32.05;;;19.38;;
25023;SDS011;13033;50.936;5.334;2022-11-20T00:42:54;32.17;;;18.55;;
25023;SDS011;13033;50.936;5.334;2022-11-20T00:45:20;33.45;;;19.52;;
25023;SDS011;13033;50.936;5.334;2022-11-20T00:47:45;32.97;;;19.63;;
25023;SDS011;13033;50.936;5.334;2022-11-20T00:50:11;31.30;;;19.65;;
25023;SDS011;13033;50.936;5.334;2022-11-20T00:52:37;37.13;;;19.67;;
25023;SDS011;13033;50.936;5.334;2022-11-20T00:55:02;33.13;;;18.23;;
25023;SDS011;13033;50.936;5.334;2022-11-20T00:57:28;33.22;;;19.88;;
25023;SDS011;13033;50.936;5.334;2022-11-20T00:59:54;32.95;;;19.13;;
25023;SDS011;13033;50.936;5.334;2022-11-20T01:02:19;34.78;;;20.17;;
25023;SDS011;13033;50.936;5.334;2022-11-20T01:04:45;32.50;;;19.70;;
25023;SDS011;13033;50.936;5.334;2022-11-20T01:07:10;35.55;;;19.92;;
25023;SDS011;13033;50.936;5.334;2022-11-20T01:09:36;33.88;;;19.75;;
25023;SDS011;13033;50.936;5.334;2022-11-20T01:12:02;35.28;;;20.25;;
25023;SDS011;13033;50.936;5.334;2022-11-20T01:14:28;36.05;;;19.77;;
25023;SDS011;13033;50.936;5.334;2022-11-20T01:16:53;36.05;;;20.15;;
25023;SDS011;13033;50.936;5.334;2022-11-20T01:19:20;33.10;;;20.17;;
25023;SDS011;13033;50.936;5.334;2022-11-20T01:21:48;34.90;;;20.50;;
25023;SDS011;13033;50.936;5.334;2022-11-20T01:24:16;35.30;;;20.60;;
25023;SDS011;13033;50.936;5.334;2022-11-20T01:26:43;32.85;;;19.48;;
25023;SDS011;13033;50.936;5.334;2022-11-20T01:29:14;33.38;;;19.98;;
25023;SDS011;13033;50.936;5.334;2022-11-20T01:31:45;34.22;;;20.58;;
25023;SDS011;13033;50.936;5.334;2022-11-20T01:34:12;33.50;;;20.30;;
25023;SDS011;13033;50.936;5.334;2022-11-20T01:36:40;34.67;;;20.42;;
25023;SDS011;13033;50.936;5.334;2022-11-20T01:39:16;38.65;;;20.65;;
25023;SDS011;13033;50.936;5.334;2022-11-20T01:41:44;32.92;;;19.42;;
25023;SDS011;13033;50.936;5.334;2022-11-20T01:52:49;34.17;;;19.65;;
25023;SDS011;13033;50.936;5.334;2022-11-20T01:55:25;34.38;;;19.15;;
25023;SDS011;13033;50.936;5.334;2022-11-20T01:58:01;35.50;;;20.10;;
25023;SDS011;13033;50.936;5.334;2022-11-20T02:00:27;32.25;;;18.77;;
25023;SDS011;13033;50.936;5.334;2022-11-20T02:02:54;33.05;;;19.65;;
25023;SDS011;13033;50.936;5.334;2022-11-20T02:05:33;37.80;;;19.77;;
25023;SDS011;13033;50.936;5.334;2022-11-20T02:08:05;34.40;;;19.25;;
25023;SDS011;13033;50.936;5.334;2022-11-20T02:10:32;33.95;;;19.67;;
25023;SDS011;13033;50.936;5.334;2022-11-20T02:12:59;32.17;;;18.50;;
25023;SDS011;13033;50.936;5.334;2022-11-20T02:15:44;33.97;;;19.40;;
25023;SDS011;13033;50.936;5.334;2022-11-20T02:18:11;30.70;;;19.27;;
25023;SDS011;13033;50.936;5.334;2022-11-20T02:20:39;30.30;;;18.77;;
25023;SDS011;13033;50.936;5.334;2022-11-20T02:23:12;34.42;;;20.00;;
25023;SDS011;13033;50.936;5.334;2022-11-20T02:25:58;30.95;;;18.67;;
25023;SDS011;13033;50.936;5.334;2022-11-20T02:28:27;35.08;;;19.88;;
25023;SDS011;13033;50.936;5.334;2022-11-20T02:30:52;32.55;;;18.58;;
25023;SDS011;13033;50.936;5.334;2022-11-20T02:33:18;34.38;;;19.65;;
25023;SDS011;13033;50.936;5.334;2022-11-20T02:35:45;33.42;;;19.17;;
25023;SDS011;13033;50.936;5.334;2022-11-20T02:38:11;39.60;;;20.35;;
25023;SDS011;13033;50.936;5.334;2022-11-20T02:40:37;34.58;;;19.58;;
25023;SDS011;13033;50.936;5.334;2022-11-20T02:43:03;33.63;;;20.08;;
25023;SDS011;13033;50.936;5.334;2022-11-20T02:45:29;33.38;;;20.00;;
25023;SDS011;13033;50.936;5.334;2022-11-20T02:47:54;34.95;;;19.40;;
25023;SDS011;13033;50.936;5.334;2022-11-20T02:50:20;38.60;;;19.55;;
25023;SDS011;13033;50.936;5.334;2022-11-20T02:52:46;31.75;;;19.30;;
25023;SDS011;13033;50.936;5.334;2022-11-20T02:55:11;32.55;;;19.75;;
25023;SDS011;13033;50.936;5.334;2022-11-20T02:57:37;32.35;;;18.80;;
25023;SDS011;13033;50.936;5.334;2022-11-20T03:00:03;31.73;;;19.20;;
25023;SDS011;13033;50.936;5.334;2022-11-20T03:02:31;32.70;;;18.65;;
25023;SDS011;13033;50.936;5.334;2022-11-20T03:04:57;34.38;;;19.52;;
25023;SDS011;13033;50.936;5.334;2022-11-20T03:07:24;35.35;;;20.35;;
25023;SDS011;13033;50.936;5.334;2022-11-20T03:09:49;32.97;;;19.75;;
25023;SDS011;13033;50.936;5.334;2022-11-20T03:12:15;34.03;;;19.42;;
25023;SDS011;13033;50.936;5.334;2022-11-20T03:14:41;32.20;;;19.13;;
25023;SDS011;13033;50.936;5.334;2022-11-20T03:17:06;32.10;;;18.90;;
25023;SDS011;13033;50.936;5.334;2022-11-20T03:19:32;32.58;;;18.92;;
25023;SDS011;13033;50.936;5.334;2022-11-20T03:21:59;31.67;;;18.98;;
25023;SDS011;13033;50.936;5.334;2022-11-20T03:24:25;34.40;;;19.00;;
25023;SDS011;13033;50.936;5.334;2022-11-20T03:26:50;33.33;;;19.67;;
25023;SDS011;13033;50.936;5.334;2022-11-20T03:29:16;35.45;;;18.88;;
25023;SDS011;13033;50.936;5.334;2022-11-20T03:31:42;33.38;;;19.73;;
25023;SDS011;13033;50.936;5.334;2022-11-20T03:34:08;31.55;;;18.98;;
25023;SDS011;13033;50.936;5.334;2022-11-20T03:36:37;31.58;;;19.38;;
25023;SDS011;13033;50.936;5.334;2022-11-20T03:39:04;31.50;;;18.75;;
25023;SDS011;13033;50.936;5.334;2022-11-20T03:41:30;33.38;;;18.98;;
25023;SDS011;13033;50.936;5.334;2022-11-20T03:44:00;33.53;;;19.90;;
25023;SDS011;13033;50.936;5.334;2022-11-20T03:46:28;30.50;;;18.77;;
25023;SDS011;13033;50.936;5.334;2022-11-20T03:48:54;31.90;;;19.88;;
25023;SDS011;13033;50.936;5.334;2022-11-20T03:51:24;32.38;;;18.20;;
25023;SDS011;13033;50.936;5.334;2022-11-20T03:53:52;34.00;;;19.17;;
25023;SDS011;13033;50.936;5.334;2022-11-20T03:56:20;31.70;;;18.77;;
25023;SDS011;13033;50.936;5.334;2022-11-20T03:58:48;31.55;;;18.73;;
25023;SDS011;13033;50.936;5.334;2022-11-20T04:01:17;33.05;;;18.98;;
25023;SDS011;13033;50.936;5.334;2022-11-20T04:03:44;34.55;;;20.02;;
25023;SDS011;13033;50.936;5.334;2022-11-20T04:06:11;34.17;;;19.38;;
25023;SDS011;13033;50.936;5.334;2022-11-20T04:08:45;29.90;;;18.42;;
25023;SDS011;13033;50.936;5.334;2022-11-20T04:11:15;33.85;;;19.40;;
25023;SDS011;13033;50.936;5.334;2022-11-20T04:13:47;40.80;;;21.08;;
25023;SDS011;13033;50.936;5.334;2022-11-20T04:16:14;34.22;;;19.27;;
25023;SDS011;13033;50.936;5.334;2022-11-20T04:18:40;35.30;;;19.85;;
25023;SDS011;13033;50.936;5.334;2022-11-20T04:21:05;35.80;;;19.17;;
25023;SDS011;13033;50.936;5.334;2022-11-20T04:23:31;36.38;;;20.67;;
25023;SDS011;13033;50.936;5.334;2022-11-20T04:26:07;35.10;;;20.67;;
25023;SDS011;13033;50.936;5.334;2022-11-20T04:28:35;47.17;;;23.17;;
25023;SDS011;13033;50.936;5.334;2022-11-20T04:31:08;41.65;;;22.13;;
25023;SDS011;13033;50.936;5.334;2022-11-20T04:33:38;52.08;;;22.13;;
25023;SDS011;13033;50.936;5.334;2022-11-20T04:36:05;42.15;;;21.58;;
25023;SDS011;13033;50.936;5.334;2022-11-20T04:38:42;44.25;;;22.50;;
25023;SDS011;13033;50.936;5.334;2022-11-20T04:41:08;51.45;;;24.45;;
25023;SDS011;13033;50.936;5.334;2022-11-20T04:43:39;44.50;;;23.48;;
25023;SDS011;13033;50.936;5.334;2022-11-20T04:46:04;44.60;;;23.50;;
25023;SDS011;13033;50.936;5.334;2022-11-20T04:48:30;49.38;;;23.83;;
25023;SDS011;13033;50.936;5.334;2022-11-20T04:50:56;46.97;;;24.08;;
25023;SDS011;13033;50.936;5.334;2022-11-20T04:53:22;47.80;;;23.30;;
25023;SDS011;13033;50.936;5.334;2022-11-20T04:55:48;52.58;;;24.48;;
25023;SDS011;13033;50.936;5.334;2022-11-20T04:58:14;50.72;;;25.00;;
25023;SDS011;13033;50.936;5.334;2022-11-20T05:00:40;49.08;;;24.73;;
25023;SDS011;13033;50.936;5.334;2022-11-20T05:03:06;47.47;;;23.80;;
25023;SDS011;13033;50.936;5.334;2022-11-20T05:05:33;47.60;;;24.92;;
25023;SDS011;13033;50.936;5.334;2022-11-20T05:07:59;50.00;;;24.73;;
25023;SDS011;13033;50.936;5.334;2022-11-20T05:10:25;51.08;;;25.70;;
25023;SDS011;13033;50.936;5.334;2022-11-20T05:12:51;55.47;;;25.38;;
25023;SDS011;13033;50.936;5.334;2022-11-20T05:15:17;45.95;;;24.63;;
25023;SDS011;13033;50.936;5.334;2022-11-20T05:17:49;45.03;;;24.55;;
25023;SDS011;13033;50.936;5.334;2022-11-20T05:20:15;51.70;;;25.13;;
25023;SDS011;13033;50.936;5.334;2022-11-20T05:22:41;49.67;;;25.85;;
25023;SDS011;13033;50.936;5.334;2022-11-20T05:25:07;53.75;;;26.05;;
25023;SDS011;13033;50.936;5.334;2022-11-20T05:27:33;52.03;;;27.20;;
25023;SDS011;13033;50.936;5.334;2022-11-20T05:29:58;45.83;;;24.88;;
25023;SDS011;13033;50.936;5.334;2022-11-20T05:32:24;54.20;;;26.63;;
25023;SDS011;13033;50.936;5.334;2022-11-20T05:34:52;55.28;;;27.20;;
25023;SDS011;13033;50.936;5.334;2022-11-20T05:37:18;56.58;;;27.08;;
25023;SDS011;13033;50.936;5.334;2022-11-20T05:39:43;61.03;;;27.95;;
25023;SDS011;13033;50.936;5.334;2022-11-20T05:42:09;51.05;;;26.92;;
25023;SDS011;13033;50.936;5.334;2022-11-20T05:44:53;58.40;;;27.05;;
25023;SDS011;13033;50.936;5.334;2022-11-20T05:47:19;57.33;;;26.83;;
25023;SDS011;13033;50.936;5.334;2022-11-20T05:49:44;52.63;;;24.45;;
25023;SDS011;13033;50.936;5.334;2022-11-20T05:52:10;54.75;;;27.58;;
25023;SDS011;13033;50.936;5.334;2022-11-20T05:54:36;52.47;;;26.30;;
25023;SDS011;13033;50.936;5.334;2022-11-20T05:57:01;55.70;;;28.20;;
25023;SDS011;13033;50.936;5.334;2022-11-20T05:59:27;48.33;;;25.88;;
25023;SDS011;13033;50.936;5.334;2022-11-20T06:01:52;59.00;;;26.35;;
25023;SDS011;13033;50.936;5.334;2022-11-20T06:04:18;50.92;;;26.92;;
25023;SDS011;13033;50.936;5.334;2022-11-20T06:06:44;50.33;;;26.05;;
25023;SDS011;13033;50.936;5.334;2022-11-20T06:09:09;52.88;;;25.73;;
25023;SDS011;13033;50.936;5.334;2022-11-20T06:11:35;51.72;;;25.92;;
25023;SDS011;13033;50.936;5.334;2022-11-20T06:14:00;55.95;;;25.75;;
25023;SDS011;13033;50.936;5.334;2022-11-20T06:16:26;51.53;;;25.77;;
25023;SDS011;13033;50.936;5.334;2022-11-20T06:18:52;60.72;;;27.30;;
25023;SDS011;13033;50.936;5.334;2022-11-20T06:21:18;51.78;;;26.23;;
25023;SDS011;13033;50.936;5.334;2022-11-20T06:23:46;53.42;;;27.42;;
25023;SDS011;13033;50.936;5.334;2022-11-20T06:26:15;61.05;;;26.70;;
25023;SDS011;13033;50.936;5.334;2022-11-20T06:28:43;53.95;;;25.27;;
25023;SDS011;13033;50.936;5.334;2022-11-20T06:31:10;51.58;;;26.70;;
25023;SDS011;13033;50.936;5.334;2022-11-20T06:33:38;51.63;;;25.50;;
25023;SDS011;13033;50.936;5.334;2022-11-20T06:36:04;52.85;;;26.65;;
25023;SDS011;13033;50.936;5.334;2022-11-20T06:38:30;51.05;;;26.27;;
25023;SDS011;13033;50.936;5.334;2022-11-20T06:40:56;53.17;;;27.50;;
25023;SDS011;13033;50.936;5.334;2022-11-20T06:43:22;62.17;;;27.45;;
25023;SDS011;13033;50.936;5.334;2022-11-20T06:45:52;51.72;;;26.20;;
25023;SDS011;13033;50.936;5.334;2022-11-20T06:48:18;53.28;;;26.95;;
25023;SDS011;13033;50.936;5.334;2022-11-20T06:50:44;52.20;;;26.50;;
25023;SDS011;13033;50.936;5.334;2022-11-20T06:53:10;54.38;;;26.92;;
25023;SDS011;13033;50.936;5.334;2022-11-20T06:55:36;51.78;;;26.27;;
25023;SDS011;13033;50.936;5.334;2022-11-20T06:58:01;53.90;;;26.98;;
25023;SDS011;13033;50.936;5.334;2022-11-20T07:00:27;56.25;;;26.20;;
25023;SDS011;13033;50.936;5.334;2022-11-20T07:02:52;50.25;;;25.65;;
25023;SDS011;13033;50.936;5.334;2022-11-20T07:05:18;51.83;;;26.90;;
25023;SDS011;13033;50.936;5.334;2022-11-20T07:07:44;53.83;;;25.92;;
25023;SDS011;13033;50.936;5.334;2022-11-20T07:10:09;50.65;;;24.92;;
25023;SDS011;13033;50.936;5.334;2022-11-20T07:12:35;53.00;;;26.02;;
25023;SDS011;13033;50.936;5.334;2022-11-20T07:15:01;52.90;;;26.35;;
25023;SDS011;13033;50.936;5.334;2022-11-20T07:17:26;50.65;;;26.13;;
25023;SDS011;13033;50.936;5.334;2022-11-20T07:19:52;46.75;;;24.70;;
25023;SDS011;13033;50.936;5.334;2022-11-20T07:22:17;52.40;;;26.50;;
25023;SDS011;13033;50.936;5.334;2022-11-20T07:24:46;59.22;;;26.58;;
25023;SDS011;13033;50.936;5.334;2022-11-20T07:27:12;57.95;;;28.15;;
25023;SDS011;13033;50.936;5.334;2022-11-20T07:29:37;53.75;;;26.98;;
25023;SDS011;13033;50.936;5.334;2022-11-20T07:32:03;49.75;;;25.42;;
25023;SDS011;13033;50.936;5.334;2022-11-20T07:34:29;49.05;;;25.00;;
25023;SDS011;13033;50.936;5.334;2022-11-20T07:36:55;47.00;;;24.90;;
25023;SDS011;13033;50.936;5.334;2022-11-20T07:39:20;48.65;;;24.25;;
25023;SDS011;13033;50.936;5.334;2022-11-20T07:41:46;43.88;;;24.05;;
25023;SDS011;13033;50.936;5.334;2022-11-20T07:44:11;45.22;;;22.60;;
25023;SDS011;13033;50.936;5.334;2022-11-20T07:46:37;47.65;;;23.85;;
25023;SDS011;13033;50.936;5.334;2022-11-20T07:49:03;46.85;;;24.73;;
25023;SDS011;13033;50.936;5.334;2022-11-20T07:51:28;50.55;;;24.55;;
25023;SDS011;13033;50.936;5.334;2022-11-20T07:53:54;44.53;;;23.77;;
25023;SDS011;13033;50.936;5.334;2022-11-20T07:56:20;44.78;;;23.92;;
25023;SDS011;13033;50.936;5.334;2022-11-20T07:58:45;47.72;;;23.60;;
25023;SDS011;13033;50.936;5.334;2022-11-20T08:01:11;46.35;;;24.25;;
25023;SDS011;13033;50.936;5.334;2022-11-20T08:03:36;47.95;;;24.48;;
25023;SDS011;13033;50.936;5.334;2022-11-20T08:06:02;47.03;;;22.70;;
25023;SDS011;13033;50.936;5.334;2022-11-20T08:08:28;48.30;;;23.90;;
25023;SDS011;13033;50.936;5.334;2022-11-20T08:10:56;44.60;;;23.83;;
25023;SDS011;13033;50.936;5.334;2022-11-20T08:13:42;50.70;;;24.48;;
25023;SDS011;13033;50.936;5.334;2022-11-20T08:16:26;49.28;;;24.85;;
25023;SDS011;13033;50.936;5.334;2022-11-20T08:18:53;53.50;;;27.50;;
25023;SDS011;13033;50.936;5.334;2022-11-20T08:21:18;52.15;;;25.52;;
25023;SDS011;13033;50.936;5.334;2022-11-20T08:23:44;51.72;;;26.42;;
25023;SDS011;13033;50.936;5.334;2022-11-20T08:26:09;51.05;;;26.35;;
25023;SDS011;13033;50.936;5.334;2022-11-20T08:28:35;53.70;;;26.48;;
25023;SDS011;13033;50.936;5.334;2022-11-20T08:31:01;53.05;;;26.35;;
25023;SDS011;13033;50.936;5.334;2022-11-20T08:33:27;51.65;;;25.50;;
25023;SDS011;13033;50.936;5.334;2022-11-20T08:35:57;53.60;;;26.20;;
25023;SDS011;13033;50.936;5.334;2022-11-20T08:38:30;51.35;;;25.77;;
25023;SDS011;13033;50.936;5.334;2022-11-20T08:40:59;53.92;;;26.00;;
25023;SDS011;13033;50.936;5.334;2022-11-20T08:43:45;54.55;;;25.60;;
25023;SDS011;13033;50.936;5.334;2022-11-20T08:46:11;48.70;;;25.45;;
25023;SDS011;13033;50.936;5.334;2022-11-20T08:48:37;56.60;;;26.95;;
25023;SDS011;13033;50.936;5.334;2022-11-20T08:51:03;55.38;;;26.42;;
25023;SDS011;13033;50.936;5.334;2022-11-20T08:53:29;51.13;;;26.83;;
25023;SDS011;13033;50.936;5.334;2022-11-20T08:55:54;51.88;;;25.63;;
25023;SDS011;13033;50.936;5.334;2022-11-20T08:58:21;51.00;;;26.52;;
25023;SDS011;13033;50.936;5.334;2022-11-20T09:00:47;53.70;;;26.35;;
25023;SDS011;13033;50.936;5.334;2022-11-20T09:03:13;54.00;;;26.15;;
25023;SDS011;13033;50.936;5.334;2022-11-20T09:05:39;54.00;;;26.63;;
25023;SDS011;13033;50.936;5.334;2022-11-20T09:08:04;58.78;;;27.13;;
25023;SDS011;13033;50.936;5.334;2022-11-20T09:10:30;55.05;;;25.92;;
25023;SDS011;13033;50.936;5.334;2022-11-20T09:12:57;53.40;;;25.15;;
25023;SDS011;13033;50.936;5.334;2022-11-20T09:15:23;49.95;;;25.92;;
25023;SDS011;13033;50.936;5.334;2022-11-20T09:20:18;49.58;;;24.70;;
25023;SDS011;13033;50.936;5.334;2022-11-20T09:22:44;51.10;;;24.92;;
25023;SDS011;13033;50.936;5.334;2022-11-20T09:25:10;48.72;;;23.65;;
25023;SDS011;13033;50.936;5.334;2022-11-20T09:27:36;49.53;;;23.58;;
25023;SDS011;13033;50.936;5.334;2022-11-20T09:30:02;52.95;;;25.02;;
25023;SDS011;13033;50.936;5.334;2022-11-20T09:32:28;53.33;;;25.00;;
25023;SDS011;13033;50.936;5.334;2022-11-20T09:34:54;45.58;;;24.25;;
25023;SDS011;13033;50.936;5.334;2022-11-20T09:37:19;51.92;;;25.25;;
25023;SDS011;13033;50.936;5.334;2022-11-20T09:39:45;55.05;;;27.05;;
25023;SDS011;13033;50.936;5.334;2022-11-20T09:42:17;51.65;;;24.67;;
25023;SDS011;13033;50.936;5.334;2022-11-20T09:53:04;60.13;;;27.10;;
25023;SDS011;13033;50.936;5.334;2022-11-20T09:55:50;55.50;;;26.67;;
25023;SDS011;13033;50.936;5.334;2022-11-20T09:58:23;60.63;;;25.40;;
25023;SDS011;13033;50.936;5.334;2022-11-20T10:00:59;58.50;;;25.73;;
25023;SDS011;13033;50.936;5.334;2022-11-20T10:03:39;59.63;;;26.20;;
25023;SDS011;13033;50.936;5.334;2022-11-20T10:09:53;59.50;;;26.45;;
25023;SDS011;13033;50.936;5.334;2022-11-20T10:12:25;58.72;;;24.40;;
25023;SDS011;13033;50.936;5.334;2022-11-20T10:21:19;54.85;;;25.25;;
25023;SDS011;13033;50.936;5.334;2022-11-20T10:29:47;59.97;;;26.13;;
25023;SDS011;13033;50.936;5.334;2022-11-20T10:32:29;64.80;;;27.02;;
25023;SDS011;13033;50.936;5.334;2022-11-20T10:35:00;59.60;;;25.85;;
25023;SDS011;13033;50.936;5.334;2022-11-20T10:37:40;61.50;;;25.05;;
25023;SDS011;13033;50.936;5.334;2022-11-20T10:42:52;59.78;;;24.48;;
25023;SDS011;13033;50.936;5.334;2022-11-20T10:47:49;60.97;;;26.55;;
25023;SDS011;13033;50.936;5.334;2022-11-20T10:50:18;57.97;;;25.05;;
25023;SDS011;13033;50.936;5.334;2022-11-20T10:52:56;60.17;;;26.13;;
25023;SDS011;13033;50.936;5.334;2022-11-20T10:55:49;63.40;;;25.63;;
25023;SDS011;13033;50.936;5.334;2022-11-20T10:58:30;68.07;;;28.13;;
25023;SDS011;13033;50.936;5.334;2022-11-20T11:01:11;66.65;;;27.30;;
25023;SDS011;13033;50.936;5.334;2022-11-20T11:03:40;64.40;;;26.77;;
25023;SDS011;13033;50.936;5.334;2022-11-20T11:06:10;67.55;;;28.23;;
25023;SDS011;13033;50.936;5.334;2022-11-20T11:08:44;65.63;;;27.63;;
25023;SDS011;13033;50.936;5.334;2022-11-20T11:13:47;65.30;;;27.73;;
25023;SDS011;13033;50.936;5.334;2022-11-20T11:16:23;69.07;;;27.83;;
25023;SDS011;13033;50.936;5.334;2022-11-20T11:18:50;67.10;;;27.98;;
25023;SDS011;13033;50.936;5.334;2022-11-20T11:21:23;61.28;;;26.15;;
25023;SDS011;13033;50.936;5.334;2022-11-20T11:23:57;67.00;;;27.52;;
25023;SDS011;13033;50.936;5.334;2022-11-20T11:26:24;60.47;;;26.55;;
25023;SDS011;13033;50.936;5.334;2022-11-20T11:28:54;56.65;;;26.05;;
25023;SDS011;13033;50.936;5.334;2022-11-20T11:31:27;59.42;;;26.40;;
25023;SDS011;13033;50.936;5.334;2022-11-20T11:34:07;62.58;;;25.83;;
25023;SDS011;13033;50.936;5.334;2022-11-20T11:36:41;57.30;;;25.55;;
25023;SDS011;13033;50.936;5.334;2022-11-20T11:39:17;57.80;;;26.23;;
25023;SDS011;13033;50.936;5.334;2022-11-20T11:41:45;54.88;;;25.38;;
25023;SDS011;13033;50.936;5.334;2022-11-20T11:47:11;55.28;;;24.35;;
25023;SDS011;13033;50.936;5.334;2022-11-20T12:00:34;51.22;;;23.15;;
25023;SDS011;13033;50.936;5.334;2022-11-20T12:08:44;49.90;;;23.08;;
25023;SDS011;13033;50.936;5.334;2022-11-20T12:11:13;49.10;;;21.65;;
25023;SDS011;13033;50.936;5.334;2022-11-20T12:13:56;42.92;;;21.15;;
25023;SDS011;13033;50.936;5.334;2022-11-20T12:16:28;45.03;;;21.85;;
25023;SDS011;13033;50.936;5.334;2022-11-20T12:18:58;45.15;;;21.85;;
25023;SDS011;13033;50.936;5.334;2022-11-20T12:29:36;22.88;;;13.00;;
25023;SDS011;13033;50.936;5.334;2022-11-20T12:37:48;17.23;;;8.07;;
25023;SDS011;13033;50.936;5.334;2022-11-20T12:43:21;14.10;;;5.05;;
25023;SDS011;13033;50.936;5.334;2022-11-20T12:51:39;7.20;;;3.50;;
25023;SDS011;13033;50.936;5.334;2022-11-20T13:07:30;9.48;;;2.90;;
25023;SDS011;13033;50.936;5.334;2022-11-20T13:09:57;6.80;;;2.00;;
25023;SDS011;13033;50.936;5.334;2022-11-20T13:12:27;6.88;;;2.28;;
25023;SDS011;13033;50.936;5.334;2022-11-20T13:20:22;5.45;;;2.47;;
25023;SDS011;13033;50.936;5.334;2022-11-20T13:22:49;4.50;;;2.20;;
25023;SDS011;13033;50.936;5.334;2022-11-20T13:25:26;6.32;;;2.03;;
25023;SDS011;13033;50.936;5.334;2022-11-20T13:27:52;6.43;;;2.55;;
25023;SDS011;13033;50.936;5.334;2022-11-20T13:30:22;5.70;;;2.10;;
25023;SDS011;13033;50.936;5.334;2022-11-20T13:35:29;5.65;;;2.38;;
25023;SDS011;13033;50.936;5.334;2022-11-20T13:38:09;8.13;;;2.22;;
25023;SDS011;13033;50.936;5.334;2022-11-20T13:40:59;10.52;;;2.92;;
25023;SDS011;13033;50.936;5.334;2022-11-20T13:43:40;7.53;;;2.30;;
25023;SDS011;13033;50.936;5.334;2022-11-20T13:46:08;8.18;;;2.65;;
25023;SDS011;13033;50.936;5.334;2022-11-20T13:48:44;8.00;;;2.35;;
25023;SDS011;13033;50.936;5.334;2022-11-20T13:51:23;8.77;;;2.88;;
25023;SDS011;13033;50.936;5.334;2022-11-20T14:00:04;7.85;;;2.60;;
25023;SDS011;13033;50.936;5.334;2022-11-20T14:02:39;5.70;;;3.17;;
25023;SDS011;13033;50.936;5.334;2022-11-20T14:05:11;5.78;;;2.58;;
25023;SDS011;13033;50.936;5.334;2022-11-20T14:07:47;7.63;;;2.65;;
25023;SDS011;13033;50.936;5.334;2022-11-20T14:10:19;9.70;;;2.63;;
25023;SDS011;13033;50.936;5.334;2022-11-20T14:12:47;9.25;;;2.75;;
25023;SDS011;13033;50.936;5.334;2022-11-20T14:15:34;7.88;;;2.70;;
25023;SDS011;13033;50.936;5.334;2022-11-20T14:17:59;4.97;;;2.50;;
25023;SDS011;13033;50.936;5.334;2022-11-20T14:20:36;6.57;;;2.85;;
25023;SDS011;13033;50.936;5.334;2022-11-20T14:23:03;10.02;;;3.35;;
25023;SDS011;13033;50.936;5.334;2022-11-20T14:25:30;7.57;;;3.10;;
25023;SDS011;13033;50.936;5.334;2022-11-20T14:27:57;10.50;;;3.45;;
25023;SDS011;13033;50.936;5.334;2022-11-20T14:30:26;7.47;;;2.88;;
25023;SDS011;13033;50.936;5.334;2022-11-20T14:33:12;7.93;;;3.63;;
25023;SDS011;13033;50.936;5.334;2022-11-20T14:35:49;7.40;;;3.78;;
25023;SDS011;13033;50.936;5.334;2022-11-20T14:38:18;9.07;;;3.90;;
25023;SDS011;13033;50.936;5.334;2022-11-20T14:40:48;9.63;;;3.90;;
25023;SDS011;13033;50.936;5.334;2022-11-20T14:45:59;8.75;;;3.78;;
25023;SDS011;13033;50.936;5.334;2022-11-20T14:49:12;6.47;;;3.08;;
25023;SDS011;13033;50.936;5.334;2022-11-20T14:51:28;6.85;;;3.50;;
25023;SDS011;13033;50.936;5.334;2022-11-20T14:54:20;8.52;;;3.60;;
25023;SDS011;13033;50.936;5.334;2022-11-20T14:56:54;9.65;;;4.03;;
25023;SDS011;13033;50.936;5.334;2022-11-20T14:59:28;7.18;;;3.90;;
25023;SDS011;13033;50.936;5.334;2022-11-20T15:02:16;10.45;;;3.20;;
25023;SDS011;13033;50.936;5.334;2022-11-20T15:04:48;10.18;;;4.43;;
25023;SDS011;13033;50.936;5.334;2022-11-20T15:07:31;8.63;;;3.92;;
25023;SDS011;13033;50.936;5.334;2022-11-20T15:10:21;9.10;;;4.15;;
25023;SDS011;13033;50.936;5.334;2022-11-20T15:12:49;11.07;;;4.45;;
25023;SDS011;13033;50.936;5.334;2022-11-20T15:18:26;7.45;;;4.32;;
25023;SDS011;13033;50.936;5.334;2022-11-20T15:20:57;12.43;;;4.85;;
25023;SDS011;13033;50.936;5.334;2022-11-20T15:23:27;11.07;;;4.97;;
25023;SDS011;13033;50.936;5.334;2022-11-20T15:25:53;8.68;;;4.40;;
25023;SDS011;13033;50.936;5.334;2022-11-20T15:28:31;10.80;;;4.15;;
25023;SDS011;13033;50.936;5.334;2022-11-20T15:30:59;8.55;;;4.60;;
25023;SDS011;13033;50.936;5.334;2022-11-20T15:33:27;6.60;;;4.65;;
25023;SDS011;13033;50.936;5.334;2022-11-20T15:35:53;9.68;;;4.22;;
25023;SDS011;13033;50.936;5.334;2022-11-20T15:38:18;7.40;;;4.40;;
25023;SDS011;13033;50.936;5.334;2022-11-20T15:40:44;8.95;;;4.80;;
25023;SDS011;13033;50.936;5.334;2022-11-20T15:43:09;7.80;;;3.88;;
25023;SDS011;13033;50.936;5.334;2022-11-20T15:45:54;10.40;;;3.83;;
25023;SDS011;13033;50.936;5.334;2022-11-20T15:48:44;6.70;;;4.05;;
25023;SDS011;13033;50.936;5.334;2022-11-20T15:54:11;6.93;;;3.85;;
25023;SDS011;13033;50.936;5.334;2022-11-20T15:56:45;8.13;;;3.53;;
25023;SDS011;13033;50.936;5.334;2022-11-20T15:59:11;4.72;;;3.28;;
25023;SDS011;13033;50.936;5.334;2022-11-20T16:01:39;3.92;;;3.17;;
25023;SDS011;13033;50.936;5.334;2022-11-20T16:04:09;5.85;;;2.88;;
25023;SDS011;13033;50.936;5.334;2022-11-20T16:06:39;5.55;;;2.90;;
25023;SDS011;13033;50.936;5.334;2022-11-20T16:09:05;4.85;;;3.25;;
25023;SDS011;13033;50.936;5.334;2022-11-20T16:11:30;3.80;;;2.60;;
25023;SDS011;13033;50.936;5.334;2022-11-20T16:13:56;5.40;;;3.17;;
25023;SDS011;13033;50.936;5.334;2022-11-20T16:16:40;5.35;;;3.40;;
25023;SDS011;13033;50.936;5.334;2022-11-20T16:19:10;3.85;;;3.10;;
25023;SDS011;13033;50.936;5.334;2022-11-20T16:21:40;4.35;;;3.15;;
25023;SDS011;13033;50.936;5.334;2022-11-20T16:24:07;7.78;;;3.92;;
25023;SDS011;13033;50.936;5.334;2022-11-20T16:26:37;4.57;;;4.05;;
25023;SDS011;13033;50.936;5.334;2022-11-20T16:29:04;6.32;;;4.20;;
25023;SDS011;13033;50.936;5.334;2022-11-20T16:31:30;8.15;;;3.95;;
25023;SDS011;13033;50.936;5.334;2022-11-20T16:34:01;10.05;;;4.43;;
25023;SDS011;13033;50.936;5.334;2022-11-20T16:36:29;7.60;;;4.93;;
25023;SDS011;13033;50.936;5.334;2022-11-20T16:39:00;5.25;;;4.10;;